sensor_id;sensor_type;location;lat;lon;timestamp;temperature;humidity
12025;DHT22;6073;53.230;10.444;2023-04-06T00:00:59;0.50;99.90
12025;DHT22;6073;53.230;10.444;2023-04-06T00:03:24;0.40;99.90
12025;DHT22;6073;53.230;10.444;2023-04-06T00:05:50;0.40;99.90
12025;DHT22;6073;53.230;10.444;2023-04-06T00:08:16;0.40;99.90
12025;DHT22;6073;53.230;10.444;2023-04-06T00:10:42;0.30;99.90
12025;DHT22;6073;53.230;10.444;2023-04-06T00:13:07;0.30;99.90
12025;DHT22;6073;53.230;10.444;2023-04-06T00:15:33;0.30;99.90
12025;DHT22;6073;53.230;10.444;2023-04-06T00:17:59;0.30;99.90
12025;DHT22;6073;53.230;10.444;2023-04-06T00:20:25;0.20;99.90
12025;DHT22;6073;53.230;10.444;2023-04-06T00:22:51;0.20;99.90
12025;DHT22;6073;53.230;10.444;2023-04-06T00:25:16;0.30;99.90
12025;DHT22;6073;53.230;10.444;2023-04-06T00:27:42;0.30;99.90
12025;DHT22;6073;53.230;10.444;2023-04-06T00:30:08;0.10;99.90
12025;DHT22;6073;53.230;10.444;2023-04-06T00:32:34;0.10;99.90
12025;DHT22;6073;53.230;10.444;2023-04-06T00:35:05;0.20;99.90
12025;DHT22;6073;53.230;10.444;2023-04-06T00:37:31;0.20;99.90
12025;DHT22;6073;53.230;10.444;2023-04-06T00:39:57;0.20;99.90
12025;DHT22;6073;53.230;10.444;2023-04-06T00:42:22;0.20;99.90
12025;DHT22;6073;53.230;10.444;2023-04-06T00:44:55;0.10;99.90
12025;DHT22;6073;53.230;10.444;2023-04-06T00:47:22;0.10;99.90
12025;DHT22;6073;53.230;10.444;2023-04-06T00:49:48;0.00;99.90
12025;DHT22;6073;53.230;10.444;2023-04-06T00:52:14;0.00;99.90
12025;DHT22;6073;53.230;10.444;2023-04-06T00:54:40;0.00;99.90
12025;DHT22;6073;53.230;10.444;2023-04-06T00:57:05;0.00;99.90
12025;DHT22;6073;53.230;10.444;2023-04-06T00:59:31;-0.10;99.90
12025;DHT22;6073;53.230;10.444;2023-04-06T01:01:57;-0.20;99.90
12025;DHT22;6073;53.230;10.444;2023-04-06T01:04:22;-0.10;99.90
12025;DHT22;6073;53.230;10.444;2023-04-06T01:06:49;-0.20;99.90
12025;DHT22;6073;53.230;10.444;2023-04-06T01:09:16;-0.20;99.90
12025;DHT22;6073;53.230;10.444;2023-04-06T01:11:41;-0.20;99.90
12025;DHT22;6073;53.230;10.444;2023-04-06T01:14:07;-0.20;99.90
12025;DHT22;6073;53.230;10.444;2023-04-06T01:16:33;-0.20;99.90
12025;DHT22;6073;53.230;10.444;2023-04-06T01:18:59;-0.30;99.90
12025;DHT22;6073;53.230;10.444;2023-04-06T01:21:25;-0.30;99.90
12025;DHT22;6073;53.230;10.444;2023-04-06T01:23:51;-0.40;99.90
12025;DHT22;6073;53.230;10.444;2023-04-06T01:26:17;-0.40;99.90
12025;DHT22;6073;53.230;10.444;2023-04-06T01:28:42;-0.40;99.90
12025;DHT22;6073;53.230;10.444;2023-04-06T01:31:10;-0.40;99.90
12025;DHT22;6073;53.230;10.444;2023-04-06T01:33:36;-0.40;99.90
12025;DHT22;6073;53.230;10.444;2023-04-06T01:36:02;-0.40;99.90
12025;DHT22;6073;53.230;10.444;2023-04-06T01:38:28;-0.40;99.90
12025;DHT22;6073;53.230;10.444;2023-04-06T01:40:54;-0.40;99.90
12025;DHT22;6073;53.230;10.444;2023-04-06T01:43:20;-0.40;99.90
12025;DHT22;6073;53.230;10.444;2023-04-06T01:45:45;-0.40;99.90
12025;DHT22;6073;53.230;10.444;2023-04-06T01:48:11;-0.40;99.90
12025;DHT22;6073;53.230;10.444;2023-04-06T01:50:37;-0.50;99.90
12025;DHT22;6073;53.230;10.444;2023-04-06T01:53:03;-0.50;99.90
12025;DHT22;6073;53.230;10.444;2023-04-06T01:55:28;-0.60;99.90
12025;DHT22;6073;53.230;10.444;2023-04-06T01:57:54;-0.50;99.90
12025;DHT22;6073;53.230;10.444;2023-04-06T02:00:19;-0.60;99.90
12025;DHT22;6073;53.230;10.444;2023-04-06T02:02:45;-0.60;99.90
12025;DHT22;6073;53.230;10.444;2023-04-06T02:05:11;-0.60;99.90
12025;DHT22;6073;53.230;10.444;2023-04-06T02:07:36;-0.70;99.90
12025;DHT22;6073;53.230;10.444;2023-04-06T02:10:02;-0.70;99.90
12025;DHT22;6073;53.230;10.444;2023-04-06T02:12:28;-0.70;99.90
12025;DHT22;6073;53.230;10.444;2023-04-06T02:14:53;-0.70;99.90
12025;DHT22;6073;53.230;10.444;2023-04-06T02:17:19;-0.70;99.90
12025;DHT22;6073;53.230;10.444;2023-04-06T02:19:45;-0.70;99.90
12025;DHT22;6073;53.230;10.444;2023-04-06T02:22:10;-0.70;99.90
12025;DHT22;6073;53.230;10.444;2023-04-06T02:24:36;-0.70;99.90
12025;DHT22;6073;53.230;10.444;2023-04-06T02:27:01;-0.70;99.90
12025;DHT22;6073;53.230;10.444;2023-04-06T02:29:27;-0.80;99.90
12025;DHT22;6073;53.230;10.444;2023-04-06T02:31:52;-0.80;99.90
12025;DHT22;6073;53.230;10.444;2023-04-06T02:34:18;-0.80;99.90
12025;DHT22;6073;53.230;10.444;2023-04-06T02:36:45;-0.80;99.90
12025;DHT22;6073;53.230;10.444;2023-04-06T02:39:10;-0.90;99.90
12025;DHT22;6073;53.230;10.444;2023-04-06T02:41:36;-0.90;99.90
12025;DHT22;6073;53.230;10.444;2023-04-06T02:44:02;-0.90;99.90
12025;DHT22;6073;53.230;10.444;2023-04-06T02:46:27;-0.90;99.90
12025;DHT22;6073;53.230;10.444;2023-04-06T02:48:53;-0.90;99.90
12025;DHT22;6073;53.230;10.444;2023-04-06T02:51:18;-0.90;99.90
12025;DHT22;6073;53.230;10.444;2023-04-06T02:53:44;-0.90;99.90
12025;DHT22;6073;53.230;10.444;2023-04-06T02:56:10;-0.90;99.90
12025;DHT22;6073;53.230;10.444;2023-04-06T02:58:35;-0.90;99.90
12025;DHT22;6073;53.230;10.444;2023-04-06T03:01:02;-0.90;99.90
12025;DHT22;6073;53.230;10.444;2023-04-06T03:03:28;-0.90;99.90
12025;DHT22;6073;53.230;10.444;2023-04-06T03:05:53;-1.00;99.90
12025;DHT22;6073;53.230;10.444;2023-04-06T03:08:20;-1.00;99.90
12025;DHT22;6073;53.230;10.444;2023-04-06T03:10:45;-1.00;99.90
12025;DHT22;6073;53.230;10.444;2023-04-06T03:13:11;-1.00;99.90
12025;DHT22;6073;53.230;10.444;2023-04-06T03:15:36;-1.00;99.90
12025;DHT22;6073;53.230;10.444;2023-04-06T03:18:02;-1.00;99.90
12025;DHT22;6073;53.230;10.444;2023-04-06T03:20:27;-1.10;99.90
12025;DHT22;6073;53.230;10.444;2023-04-06T03:22:53;-1.10;99.90
12025;DHT22;6073;53.230;10.444;2023-04-06T03:25:18;-1.10;99.90
12025;DHT22;6073;53.230;10.444;2023-04-06T03:27:44;-1.10;99.90
12025;DHT22;6073;53.230;10.444;2023-04-06T03:30:10;-1.10;99.90
12025;DHT22;6073;53.230;10.444;2023-04-06T03:32:35;-1.10;99.90
12025;DHT22;6073;53.230;10.444;2023-04-06T03:35:01;-1.10;99.90
12025;DHT22;6073;53.230;10.444;2023-04-06T03:37:26;-1.10;99.90
12025;DHT22;6073;53.230;10.444;2023-04-06T03:39:52;-1.20;99.90
12025;DHT22;6073;53.230;10.444;2023-04-06T03:42:17;-1.20;99.90
12025;DHT22;6073;53.230;10.444;2023-04-06T03:44:43;-1.20;99.90
12025;DHT22;6073;53.230;10.444;2023-04-06T03:47:08;-1.30;99.90
12025;DHT22;6073;53.230;10.444;2023-04-06T03:49:34;-1.30;99.90
12025;DHT22;6073;53.230;10.444;2023-04-06T03:52:00;-1.30;99.90
12025;DHT22;6073;53.230;10.444;2023-04-06T03:54:26;-1.30;99.90
12025;DHT22;6073;53.230;10.444;2023-04-06T03:56:51;-1.30;99.90
12025;DHT22;6073;53.230;10.444;2023-04-06T03:59:17;-1.30;99.90
12025;DHT22;6073;53.230;10.444;2023-04-06T04:01:42;-1.30;99.90
12025;DHT22;6073;53.230;10.444;2023-04-06T04:04:08;-1.30;99.90
12025;DHT22;6073;53.230;10.444;2023-04-06T04:06:33;-1.40;99.90
12025;DHT22;6073;53.230;10.444;2023-04-06T04:09:01;-1.40;99.90
12025;DHT22;6073;53.230;10.444;2023-04-06T04:11:27;-1.40;99.90
12025;DHT22;6073;53.230;10.444;2023-04-06T04:13:53;-1.40;99.90
12025;DHT22;6073;53.230;10.444;2023-04-06T04:16:18;-1.40;99.90
12025;DHT22;6073;53.230;10.444;2023-04-06T04:18:44;-1.40;99.90
12025;DHT22;6073;53.230;10.444;2023-04-06T04:21:12;-1.50;99.90
12025;DHT22;6073;53.230;10.444;2023-04-06T04:23:38;-1.50;99.90
12025;DHT22;6073;53.230;10.444;2023-04-06T04:26:03;-1.50;99.90
12025;DHT22;6073;53.230;10.444;2023-04-06T04:28:29;-1.60;99.90
12025;DHT22;6073;53.230;10.444;2023-04-06T04:30:54;-1.60;99.90
12025;DHT22;6073;53.230;10.444;2023-04-06T04:33:20;-1.60;99.90
12025;DHT22;6073;53.230;10.444;2023-04-06T04:35:46;-1.50;99.90
12025;DHT22;6073;53.230;10.444;2023-04-06T04:38:11;-1.50;99.90
12025;DHT22;6073;53.230;10.444;2023-04-06T04:40:37;-1.50;99.90
12025;DHT22;6073;53.230;10.444;2023-04-06T04:43:02;-1.50;99.90
12025;DHT22;6073;53.230;10.444;2023-04-06T04:45:28;-1.50;99.90
12025;DHT22;6073;53.230;10.444;2023-04-06T04:47:53;-1.50;99.90
12025;DHT22;6073;53.230;10.444;2023-04-06T04:50:19;-1.50;99.90
12025;DHT22;6073;53.230;10.444;2023-04-06T04:52:44;-1.50;99.90
12025;DHT22;6073;53.230;10.444;2023-04-06T04:55:10;-1.50;99.90
12025;DHT22;6073;53.230;10.444;2023-04-06T04:57:36;-1.40;99.90
12025;DHT22;6073;53.230;10.444;2023-04-06T05:00:01;-1.50;99.90
12025;DHT22;6073;53.230;10.444;2023-04-06T05:02:27;-1.40;99.90
12025;DHT22;6073;53.230;10.444;2023-04-06T05:04:53;-1.40;99.90
12025;DHT22;6073;53.230;10.444;2023-04-06T05:07:18;-1.40;99.90
12025;DHT22;6073;53.230;10.444;2023-04-06T05:09:45;-1.30;99.90
12025;DHT22;6073;53.230;10.444;2023-04-06T05:12:11;-1.30;99.90
12025;DHT22;6073;53.230;10.444;2023-04-06T05:14:36;-1.30;99.90
12025;DHT22;6073;53.230;10.444;2023-04-06T05:17:02;-1.30;99.90
12025;DHT22;6073;53.230;10.444;2023-04-06T05:19:27;-1.20;99.90
12025;DHT22;6073;53.230;10.444;2023-04-06T05:21:53;-1.10;99.90
12025;DHT22;6073;53.230;10.444;2023-04-06T05:24:18;-1.10;99.90
12025;DHT22;6073;53.230;10.444;2023-04-06T05:26:44;-1.10;99.90
12025;DHT22;6073;53.230;10.444;2023-04-06T05:29:10;-1.00;99.90
12025;DHT22;6073;53.230;10.444;2023-04-06T05:31:36;-0.90;99.90
12025;DHT22;6073;53.230;10.444;2023-04-06T05:34:01;-0.80;99.90
12025;DHT22;6073;53.230;10.444;2023-04-06T05:36:27;-0.60;99.90
12025;DHT22;6073;53.230;10.444;2023-04-06T05:38:52;-0.50;99.90
12025;DHT22;6073;53.230;10.444;2023-04-06T05:41:18;-0.40;99.90
12025;DHT22;6073;53.230;10.444;2023-04-06T05:43:44;-0.30;99.90
12025;DHT22;6073;53.230;10.444;2023-04-06T05:46:10;-0.20;99.90
12025;DHT22;6073;53.230;10.444;2023-04-06T05:48:35;0.00;99.90
12025;DHT22;6073;53.230;10.444;2023-04-06T05:51:01;0.10;99.90
12025;DHT22;6073;53.230;10.444;2023-04-06T05:53:27;0.30;99.90
12025;DHT22;6073;53.230;10.444;2023-04-06T05:55:54;0.50;99.90
12025;DHT22;6073;53.230;10.444;2023-04-06T05:58:19;0.60;99.90
12025;DHT22;6073;53.230;10.444;2023-04-06T06:00:45;0.80;99.90
12025;DHT22;6073;53.230;10.444;2023-04-06T06:03:12;1.00;99.90
12025;DHT22;6073;53.230;10.444;2023-04-06T06:05:37;1.30;99.90
12025;DHT22;6073;53.230;10.444;2023-04-06T06:08:03;2.00;99.90
12025;DHT22;6073;53.230;10.444;2023-04-06T06:10:28;3.20;99.90
12025;DHT22;6073;53.230;10.444;2023-04-06T06:12:54;4.40;99.90
12025;DHT22;6073;53.230;10.444;2023-04-06T06:15:20;5.50;99.90
12025;DHT22;6073;53.230;10.444;2023-04-06T06:17:45;6.20;99.90
12025;DHT22;6073;53.230;10.444;2023-04-06T06:20:11;7.40;99.90
12025;DHT22;6073;53.230;10.444;2023-04-06T06:22:37;7.90;99.90
12025;DHT22;6073;53.230;10.444;2023-04-06T06:25:03;8.40;99.90
12025;DHT22;6073;53.230;10.444;2023-04-06T06:27:28;8.60;99.90
12025;DHT22;6073;53.230;10.444;2023-04-06T06:29:54;8.90;99.90
12025;DHT22;6073;53.230;10.444;2023-04-06T06:32:20;9.40;99.90
12025;DHT22;6073;53.230;10.444;2023-04-06T06:34:45;9.60;99.90
12025;DHT22;6073;53.230;10.444;2023-04-06T06:37:11;9.60;99.90
12025;DHT22;6073;53.230;10.444;2023-04-06T06:39:36;9.70;99.90
12025;DHT22;6073;53.230;10.444;2023-04-06T06:42:02;10.20;99.90
12025;DHT22;6073;53.230;10.444;2023-04-06T06:44:28;10.20;99.90
12025;DHT22;6073;53.230;10.444;2023-04-06T06:46:53;10.70;99.90
12025;DHT22;6073;53.230;10.444;2023-04-06T06:49:19;11.10;99.90
12025;DHT22;6073;53.230;10.444;2023-04-06T06:51:45;11.00;99.90
12025;DHT22;6073;53.230;10.444;2023-04-06T06:54:11;11.50;99.90
12025;DHT22;6073;53.230;10.444;2023-04-06T06:56:38;11.40;99.90
12025;DHT22;6073;53.230;10.444;2023-04-06T06:59:04;11.00;99.90
12025;DHT22;6073;53.230;10.444;2023-04-06T07:01:32;11.00;99.90
12025;DHT22;6073;53.230;10.444;2023-04-06T07:03:58;11.30;99.90
12025;DHT22;6073;53.230;10.444;2023-04-06T07:06:23;11.20;99.90
12025;DHT22;6073;53.230;10.444;2023-04-06T07:08:49;12.40;99.90
12025;DHT22;6073;53.230;10.444;2023-04-06T07:11:15;12.90;99.90
12025;DHT22;6073;53.230;10.444;2023-04-06T07:13:40;12.60;99.90
12025;DHT22;6073;53.230;10.444;2023-04-06T07:16:06;12.90;99.90
12025;DHT22;6073;53.230;10.444;2023-04-06T07:18:31;12.90;99.90
12025;DHT22;6073;53.230;10.444;2023-04-06T07:20:57;12.70;99.90
12025;DHT22;6073;53.230;10.444;2023-04-06T07:23:22;12.50;99.90
12025;DHT22;6073;53.230;10.444;2023-04-06T07:25:48;13.40;99.10
12025;DHT22;6073;53.230;10.444;2023-04-06T07:28:16;12.70;99.60
12025;DHT22;6073;53.230;10.444;2023-04-06T07:30:42;13.50;98.90
12025;DHT22;6073;53.230;10.444;2023-04-06T07:33:07;13.60;98.60
12025;DHT22;6073;53.230;10.444;2023-04-06T07:35:33;13.00;98.20
12025;DHT22;6073;53.230;10.444;2023-04-06T07:38:00;13.40;97.70
12025;DHT22;6073;53.230;10.444;2023-04-06T07:40:25;13.00;98.30
12025;DHT22;6073;53.230;10.444;2023-04-06T07:42:52;14.30;97.60
12025;DHT22;6073;53.230;10.444;2023-04-06T07:45:17;14.20;97.00
12025;DHT22;6073;53.230;10.444;2023-04-06T07:47:43;14.00;96.80
12025;DHT22;6073;53.230;10.444;2023-04-06T07:50:09;13.80;96.30
12025;DHT22;6073;53.230;10.444;2023-04-06T07:52:36;13.60;96.20
12025;DHT22;6073;53.230;10.444;2023-04-06T07:55:02;14.30;96.60
12025;DHT22;6073;53.230;10.444;2023-04-06T07:57:27;14.40;96.50
12025;DHT22;6073;53.230;10.444;2023-04-06T07:59:53;15.20;95.10
12025;DHT22;6073;53.230;10.444;2023-04-06T08:02:18;14.70;94.80
12025;DHT22;6073;53.230;10.444;2023-04-06T08:04:44;15.10;95.30
12025;DHT22;6073;53.230;10.444;2023-04-06T08:07:10;15.50;93.70
12025;DHT22;6073;53.230;10.444;2023-04-06T08:09:36;15.30;94.00
12025;DHT22;6073;53.230;10.444;2023-04-06T08:12:01;15.30;94.10
12025;DHT22;6073;53.230;10.444;2023-04-06T08:14:27;15.20;93.40
12025;DHT22;6073;53.230;10.444;2023-04-06T08:16:53;15.40;92.40
12025;DHT22;6073;53.230;10.444;2023-04-06T08:19:18;15.50;92.00
12025;DHT22;6073;53.230;10.444;2023-04-06T08:21:44;15.80;92.20
12025;DHT22;6073;53.230;10.444;2023-04-06T08:24:11;15.80;91.60
12025;DHT22;6073;53.230;10.444;2023-04-06T08:26:37;15.70;91.30
12025;DHT22;6073;53.230;10.444;2023-04-06T08:29:03;15.50;91.00
12025;DHT22;6073;53.230;10.444;2023-04-06T08:31:29;15.50;90.80
12025;DHT22;6073;53.230;10.444;2023-04-06T08:33:56;15.10;90.90
12025;DHT22;6073;53.230;10.444;2023-04-06T08:36:21;14.70;91.10
12025;DHT22;6073;53.230;10.444;2023-04-06T08:38:48;14.60;91.90
12025;DHT22;6073;53.230;10.444;2023-04-06T08:41:15;15.00;91.70
12025;DHT22;6073;53.230;10.444;2023-04-06T08:43:46;15.20;90.90
12025;DHT22;6073;53.230;10.444;2023-04-06T08:46:12;14.90;90.10
12025;DHT22;6073;53.230;10.444;2023-04-06T08:48:42;14.70;90.70
12025;DHT22;6073;53.230;10.444;2023-04-06T08:51:11;14.70;90.30
12025;DHT22;6073;53.230;10.444;2023-04-06T08:53:38;14.70;89.60
12025;DHT22;6073;53.230;10.444;2023-04-06T08:56:04;14.60;89.40
12025;DHT22;6073;53.230;10.444;2023-04-06T08:58:35;14.60;88.40
12025;DHT22;6073;53.230;10.444;2023-04-06T09:01:05;14.50;89.80
12025;DHT22;6073;53.230;10.444;2023-04-06T09:03:36;14.30;87.80
12025;DHT22;6073;53.230;10.444;2023-04-06T09:06:03;14.10;88.70
12025;DHT22;6073;53.230;10.444;2023-04-06T09:08:29;14.00;88.90
12025;DHT22;6073;53.230;10.444;2023-04-06T09:10:55;14.10;89.00
12025;DHT22;6073;53.230;10.444;2023-04-06T09:13:21;13.80;88.70
12025;DHT22;6073;53.230;10.444;2023-04-06T09:15:46;13.70;88.20
12025;DHT22;6073;53.230;10.444;2023-04-06T09:18:12;13.60;88.40
12025;DHT22;6073;53.230;10.444;2023-04-06T09:20:37;13.50;90.00
12025;DHT22;6073;53.230;10.444;2023-04-06T09:23:03;13.40;89.40
12025;DHT22;6073;53.230;10.444;2023-04-06T09:25:29;13.60;89.50
12025;DHT22;6073;53.230;10.444;2023-04-06T09:28:03;13.50;87.80
12025;DHT22;6073;53.230;10.444;2023-04-06T09:30:29;13.30;90.10
12025;DHT22;6073;53.230;10.444;2023-04-06T09:32:57;13.20;88.80
12025;DHT22;6073;53.230;10.444;2023-04-06T09:35:23;13.00;90.10
12025;DHT22;6073;53.230;10.444;2023-04-06T09:37:52;12.80;89.20
12025;DHT22;6073;53.230;10.444;2023-04-06T09:40:19;12.40;90.00
12025;DHT22;6073;53.230;10.444;2023-04-06T09:42:46;12.30;90.90
12025;DHT22;6073;53.230;10.444;2023-04-06T09:45:12;12.10;90.50
12025;DHT22;6073;53.230;10.444;2023-04-06T09:47:39;12.20;91.30
12025;DHT22;6073;53.230;10.444;2023-04-06T09:50:07;12.10;90.70
12025;DHT22;6073;53.230;10.444;2023-04-06T09:52:38;12.10;91.20
12025;DHT22;6073;53.230;10.444;2023-04-06T09:55:05;12.10;90.80
12025;DHT22;6073;53.230;10.444;2023-04-06T09:57:45;12.10;90.70
12025;DHT22;6073;53.230;10.444;2023-04-06T10:00:17;12.40;91.30
12025;DHT22;6073;53.230;10.444;2023-04-06T10:03:06;12.80;90.30
12025;DHT22;6073;53.230;10.444;2023-04-06T10:05:46;12.50;89.80
12025;DHT22;6073;53.230;10.444;2023-04-06T10:08:13;12.60;90.70
12025;DHT22;6073;53.230;10.444;2023-04-06T10:10:39;12.50;91.10
12025;DHT22;6073;53.230;10.444;2023-04-06T10:13:05;12.60;91.60
12025;DHT22;6073;53.230;10.444;2023-04-06T10:15:33;12.90;91.10
12025;DHT22;6073;53.230;10.444;2023-04-06T10:18:00;12.80;91.30
12025;DHT22;6073;53.230;10.444;2023-04-06T10:23:08;12.90;91.20
12025;DHT22;6073;53.230;10.444;2023-04-06T10:25:35;13.00;90.70
12025;DHT22;6073;53.230;10.444;2023-04-06T10:28:08;13.10;90.20
12025;DHT22;6073;53.230;10.444;2023-04-06T10:30:34;13.00;90.80
12025;DHT22;6073;53.230;10.444;2023-04-06T10:33:00;12.90;91.40
12025;DHT22;6073;53.230;10.444;2023-04-06T10:35:37;13.00;90.70
12025;DHT22;6073;53.230;10.444;2023-04-06T10:38:04;12.90;90.90
12025;DHT22;6073;53.230;10.444;2023-04-06T10:40:30;13.00;90.80
12025;DHT22;6073;53.230;10.444;2023-04-06T10:43:10;12.90;91.10
12025;DHT22;6073;53.230;10.444;2023-04-06T10:45:36;13.00;90.60
12025;DHT22;6073;53.230;10.444;2023-04-06T10:48:13;13.00;90.50
12025;DHT22;6073;53.230;10.444;2023-04-06T10:50:39;13.10;90.10
12025;DHT22;6073;53.230;10.444;2023-04-06T10:53:05;13.00;90.20
12025;DHT22;6073;53.230;10.444;2023-04-06T10:55:31;13.10;91.40
12025;DHT22;6073;53.230;10.444;2023-04-06T10:57:57;13.20;90.70
12025;DHT22;6073;53.230;10.444;2023-04-06T11:00:22;13.40;90.90
12025;DHT22;6073;53.230;10.444;2023-04-06T11:02:48;13.40;90.50
12025;DHT22;6073;53.230;10.444;2023-04-06T11:05:14;13.40;91.70
12025;DHT22;6073;53.230;10.444;2023-04-06T11:07:40;13.40;90.60
12025;DHT22;6073;53.230;10.444;2023-04-06T11:10:07;13.50;90.90
12025;DHT22;6073;53.230;10.444;2023-04-06T11:12:33;13.50;90.70
12025;DHT22;6073;53.230;10.444;2023-04-06T11:15:03;13.50;91.30
12025;DHT22;6073;53.230;10.444;2023-04-06T11:17:34;13.70;90.70
12025;DHT22;6073;53.230;10.444;2023-04-06T11:20:01;13.80;90.40
12025;DHT22;6073;53.230;10.444;2023-04-06T11:22:27;13.70;90.00
12025;DHT22;6073;53.230;10.444;2023-04-06T11:24:53;13.50;90.20
12025;DHT22;6073;53.230;10.444;2023-04-06T11:27:19;13.30;90.80
12025;DHT22;6073;53.230;10.444;2023-04-06T11:29:45;13.50;91.20
12025;DHT22;6073;53.230;10.444;2023-04-06T11:32:19;13.80;90.70
12025;DHT22;6073;53.230;10.444;2023-04-06T11:34:47;13.80;90.10
12025;DHT22;6073;53.230;10.444;2023-04-06T11:37:13;13.80;89.50
12025;DHT22;6073;53.230;10.444;2023-04-06T11:42:06;13.70;91.20
12025;DHT22;6073;53.230;10.444;2023-04-06T11:44:38;13.90;90.40
12025;DHT22;6073;53.230;10.444;2023-04-06T11:47:06;13.90;91.00
12025;DHT22;6073;53.230;10.444;2023-04-06T11:49:33;13.90;90.30
12025;DHT22;6073;53.230;10.444;2023-04-06T11:52:00;13.60;89.70
12025;DHT22;6073;53.230;10.444;2023-04-06T11:54:33;13.80;90.60
12025;DHT22;6073;53.230;10.444;2023-04-06T11:56:59;13.90;90.50
12025;DHT22;6073;53.230;10.444;2023-04-06T11:59:26;13.70;91.00
12025;DHT22;6073;53.230;10.444;2023-04-06T12:01:53;13.70;91.00
12025;DHT22;6073;53.230;10.444;2023-04-06T12:04:19;13.80;91.60
12025;DHT22;6073;53.230;10.444;2023-04-06T12:06:45;13.70;90.10
12025;DHT22;6073;53.230;10.444;2023-04-06T12:09:11;13.70;90.30
12025;DHT22;6073;53.230;10.444;2023-04-06T12:11:36;13.80;90.50
12025;DHT22;6073;53.230;10.444;2023-04-06T12:14:02;13.70;91.20
12025;DHT22;6073;53.230;10.444;2023-04-06T12:16:33;13.80;91.30
12025;DHT22;6073;53.230;10.444;2023-04-06T12:18:59;13.70;91.30
12025;DHT22;6073;53.230;10.444;2023-04-06T12:21:27;13.40;91.50
12025;DHT22;6073;53.230;10.444;2023-04-06T12:23:53;13.50;90.90
12025;DHT22;6073;53.230;10.444;2023-04-06T12:26:18;13.50;91.00
12025;DHT22;6073;53.230;10.444;2023-04-06T12:28:44;13.30;91.00
12025;DHT22;6073;53.230;10.444;2023-04-06T12:31:17;13.20;91.30
12025;DHT22;6073;53.230;10.444;2023-04-06T12:33:45;13.30;92.30
12025;DHT22;6073;53.230;10.444;2023-04-06T12:36:12;13.30;91.30
12025;DHT22;6073;53.230;10.444;2023-04-06T12:38:39;13.30;91.30
12025;DHT22;6073;53.230;10.444;2023-04-06T12:41:06;13.10;91.30
12025;DHT22;6073;53.230;10.444;2023-04-06T12:43:32;13.00;91.80
12025;DHT22;6073;53.230;10.444;2023-04-06T12:45:57;12.90;91.30
12025;DHT22;6073;53.230;10.444;2023-04-06T12:48:23;12.90;91.30
12025;DHT22;6073;53.230;10.444;2023-04-06T12:51:00;12.90;91.40
12025;DHT22;6073;53.230;10.444;2023-04-06T12:53:26;13.00;91.30
12025;DHT22;6073;53.230;10.444;2023-04-06T12:55:53;13.00;92.20
12025;DHT22;6073;53.230;10.444;2023-04-06T12:58:18;13.00;91.40
12025;DHT22;6073;53.230;10.444;2023-04-06T13:00:44;12.90;91.50
12025;DHT22;6073;53.230;10.444;2023-04-06T13:03:10;13.00;92.00
12025;DHT22;6073;53.230;10.444;2023-04-06T13:05:36;13.10;91.50
12025;DHT22;6073;53.230;10.444;2023-04-06T13:08:01;12.80;91.20
12025;DHT22;6073;53.230;10.444;2023-04-06T13:10:27;12.80;92.50
12025;DHT22;6073;53.230;10.444;2023-04-06T13:12:53;12.90;91.50
12025;DHT22;6073;53.230;10.444;2023-04-06T13:15:18;13.00;92.30
12025;DHT22;6073;53.230;10.444;2023-04-06T13:17:44;13.10;91.40
12025;DHT22;6073;53.230;10.444;2023-04-06T13:20:09;13.00;91.30
12025;DHT22;6073;53.230;10.444;2023-04-06T13:22:35;13.00;91.70
12025;DHT22;6073;53.230;10.444;2023-04-06T13:25:01;13.00;91.90
12025;DHT22;6073;53.230;10.444;2023-04-06T13:27:27;12.90;92.20
12025;DHT22;6073;53.230;10.444;2023-04-06T13:29:53;12.90;92.40
12025;DHT22;6073;53.230;10.444;2023-04-06T13:32:19;13.00;91.90
12025;DHT22;6073;53.230;10.444;2023-04-06T13:34:44;13.00;92.10
12025;DHT22;6073;53.230;10.444;2023-04-06T13:37:13;13.10;91.80
12025;DHT22;6073;53.230;10.444;2023-04-06T13:39:39;13.20;92.00
12025;DHT22;6073;53.230;10.444;2023-04-06T13:42:04;13.20;91.90
12025;DHT22;6073;53.230;10.444;2023-04-06T13:44:30;13.10;91.90
12025;DHT22;6073;53.230;10.444;2023-04-06T13:46:56;13.20;91.60
12025;DHT22;6073;53.230;10.444;2023-04-06T13:49:22;13.20;91.80
12025;DHT22;6073;53.230;10.444;2023-04-06T13:51:47;13.20;91.90
12025;DHT22;6073;53.230;10.444;2023-04-06T13:54:13;13.10;91.60
12025;DHT22;6073;53.230;10.444;2023-04-06T13:56:38;13.00;91.70
12025;DHT22;6073;53.230;10.444;2023-04-06T13:59:04;13.00;91.90
12025;DHT22;6073;53.230;10.444;2023-04-06T14:01:30;13.00;92.40
12025;DHT22;6073;53.230;10.444;2023-04-06T14:03:56;13.10;92.30
12025;DHT22;6073;53.230;10.444;2023-04-06T14:06:21;13.20;91.50
12025;DHT22;6073;53.230;10.444;2023-04-06T14:08:47;13.10;91.60
12025;DHT22;6073;53.230;10.444;2023-04-06T14:11:13;13.10;91.70
12025;DHT22;6073;53.230;10.444;2023-04-06T14:13:39;13.10;91.70
12025;DHT22;6073;53.230;10.444;2023-04-06T14:16:06;13.10;91.80
12025;DHT22;6073;53.230;10.444;2023-04-06T14:18:32;13.10;91.60
12025;DHT22;6073;53.230;10.444;2023-04-06T14:20:59;13.10;91.50
12025;DHT22;6073;53.230;10.444;2023-04-06T14:23:28;13.10;91.30
12025;DHT22;6073;53.230;10.444;2023-04-06T14:26:04;13.10;91.50
12025;DHT22;6073;53.230;10.444;2023-04-06T14:28:31;13.10;91.60
12025;DHT22;6073;53.230;10.444;2023-04-06T14:30:59;13.10;91.70
12025;DHT22;6073;53.230;10.444;2023-04-06T14:33:26;13.10;92.20
12025;DHT22;6073;53.230;10.444;2023-04-06T14:35:52;13.10;91.70
12025;DHT22;6073;53.230;10.444;2023-04-06T14:38:18;13.20;92.10
12025;DHT22;6073;53.230;10.444;2023-04-06T14:40:43;13.20;91.80
12025;DHT22;6073;53.230;10.444;2023-04-06T14:43:09;13.20;91.50
12025;DHT22;6073;53.230;10.444;2023-04-06T14:45:34;13.20;91.50
12025;DHT22;6073;53.230;10.444;2023-04-06T14:48:02;13.20;91.50
12025;DHT22;6073;53.230;10.444;2023-04-06T14:50:28;13.10;91.80
12025;DHT22;6073;53.230;10.444;2023-04-06T14:52:53;13.10;91.40
12025;DHT22;6073;53.230;10.444;2023-04-06T14:55:19;13.20;91.40
12025;DHT22;6073;53.230;10.444;2023-04-06T14:57:45;13.20;91.90
12025;DHT22;6073;53.230;10.444;2023-04-06T15:00:11;13.20;91.80
12025;DHT22;6073;53.230;10.444;2023-04-06T15:02:37;13.20;92.00
12025;DHT22;6073;53.230;10.444;2023-04-06T15:05:03;13.30;91.90
12025;DHT22;6073;53.230;10.444;2023-04-06T15:07:30;13.30;91.40
12025;DHT22;6073;53.230;10.444;2023-04-06T15:09:56;13.20;91.40
12025;DHT22;6073;53.230;10.444;2023-04-06T15:12:21;13.20;91.70
12025;DHT22;6073;53.230;10.444;2023-04-06T15:14:47;13.20;91.10
12025;DHT22;6073;53.230;10.444;2023-04-06T15:17:12;13.20;91.40
12025;DHT22;6073;53.230;10.444;2023-04-06T15:19:37;13.20;91.50
12025;DHT22;6073;53.230;10.444;2023-04-06T15:22:03;13.20;91.30
12025;DHT22;6073;53.230;10.444;2023-04-06T15:24:28;13.20;91.80
12025;DHT22;6073;53.230;10.444;2023-04-06T15:26:54;13.20;92.00
12025;DHT22;6073;53.230;10.444;2023-04-06T15:29:20;13.20;91.80
12025;DHT22;6073;53.230;10.444;2023-04-06T15:31:46;13.30;91.50